Time;durP1;ratioP1;P1;durP2;ratioP2;P2;SDS_P1;SDS_P2;PMS_P1;PMS_P2;Temp;Humidity;BMP_temperature;BMP_pressure;BME280_temperature;BME280_humidity;BME280_pressure;Samples;Min_cycle;Max_cycle;Signal;HPM_P1;HPM_P2
2024/02/02 00:01:57;;;;;;;32.33;18.95;;;;;;;3.91;43.49;94336.66;5033169;28;20041;-74
2024/02/02 00:04:23;;;;;;;30.67;18.20;;;;;;;3.83;43.47;94339.75;5026992;28;20044;-74
2024/02/02 00:06:48;;;;;;;28.73;18.20;;;;;;;3.56;43.95;94323.34;5011248;28;20033;-74
2024/02/02 00:09:14;;;;;;;34.88;20.08;;;;;;;3.69;43.80;94341.28;5035202;28;20119;-73
2024/02/02 00:11:40;;;;;;;27.75;18.95;;;;;;;3.44;43.82;94301.72;5032055;28;20044;-73
2024/02/02 00:14:06;;;;;;;30.20;17.27;;;;;;;3.42;43.73;94293.31;5034536;28;20045;-74
2024/02/02 00:16:32;;;;;;;37.53;18.33;;;;;;;3.63;44.15;94342.31;5035553;28;20924;-74
2024/02/02 00:18:57;;;;;;;24.58;16.38;;;;;;;3.70;44.24;94345.50;5032061;28;20517;-73
2024/02/02 00:21:22;;;;;;;23.17;15.02;;;;;;;3.64;44.08;94344.69;5028218;28;20057;-74
2024/02/02 00:23:48;;;;;;;28.23;17.90;;;;;;;3.43;44.69;94343.00;5031728;28;20049;-74
2024/02/02 00:26:13;;;;;;;34.17;18.00;;;;;;;3.47;44.58;94340.66;5031728;28;20335;-73
2024/02/02 00:28:39;;;;;;;25.45;16.08;;;;;;;3.43;44.42;94344.84;5033264;28;20037;-74
2024/02/02 00:31:04;;;;;;;18.90;12.20;;;;;;;3.44;44.44;94338.53;5034570;28;20106;-73
2024/02/02 00:33:31;;;;;;;21.27;12.45;;;;;;;3.19;44.43;94299.75;5032052;28;20078;-74
2024/02/02 00:35:57;;;;;;;24.95;11.68;;;;;;;3.47;44.76;94333.56;5031610;28;20043;-73
2024/02/02 00:38:22;;;;;;;12.98;8.55;;;;;;;3.37;44.99;94338.78;5030871;28;20048;-74
2024/02/02 00:40:48;;;;;;;15.52;9.25;;;;;;;3.43;44.80;94342.22;5033684;28;20059;-74
2024/02/02 00:43:13;;;;;;;16.65;8.25;;;;;;;3.58;44.59;94331.75;5034015;28;20060;-73
2024/02/02 00:45:39;;;;;;;15.77;8.40;;;;;;;3.64;44.76;94334.16;5031599;28;20104;-74
2024/02/02 00:48:05;;;;;;;16.17;8.52;;;;;;;3.87;44.63;94321.63;5031500;28;20386;-74
2024/02/02 00:50:30;;;;;;;16.30;8.52;;;;;;;4.10;44.60;94326.44;5033528;28;20432;-74
2024/02/02 00:52:56;;;;;;;18.55;7.93;;;;;;;4.17;44.79;94327.75;5033669;28;20037;-74
2024/02/02 00:55:21;;;;;;;13.55;6.63;;;;;;;3.80;46.40;94329.75;5034534;28;20123;-74
2024/02/02 00:57:47;;;;;;;4.88;3.67;;;;;;;3.97;46.04;94319.78;5033279;28;20049;-74
2024/02/02 01:00:13;;;;;;;5.50;4.53;;;;;;;3.95;46.25;94323.75;5029937;28;20028;-73
2024/02/02 01:02:41;;;;;;;10.93;5.03;;;;;;;4.01;45.63;94312.19;5011423;28;20925;-73
2024/02/02 01:05:08;;;;;;;12.38;6.20;;;;;;;3.92;44.17;94293.47;5009859;28;20105;-73
2024/02/02 01:07:34;;;;;;;11.30;5.28;;;;;;;3.83;44.32;94295.03;5008638;28;20529;-73
2024/02/02 01:09:59;;;;;;;9.20;6.50;;;;;;;3.67;44.50;94288.91;5008522;28;20037;-73
2024/02/02 01:12:25;;;;;;;11.85;6.22;;;;;;;3.81;44.42;94302.41;5008371;28;20076;-74
2024/02/02 01:14:51;;;;;;;9.95;6.30;;;;;;;3.84;44.83;94293.97;5010218;28;20054;-74
2024/02/02 01:17:16;;;;;;;9.98;6.40;;;;;;;3.75;44.92;94287.66;5028021;28;20053;-73
2024/02/02 01:19:42;;;;;;;11.60;6.90;;;;;;;3.67;45.64;94285.53;5032965;28;20037;-74
2024/02/02 01:22:08;;;;;;;14.15;7.97;;;;;;;3.72;45.80;94281.03;5033038;28;20032;-73
2024/02/02 01:24:33;;;;;;;9.77;6.85;;;;;;;3.82;46.47;94282.91;5033263;28;20148;-73
2024/02/02 01:26:59;;;;;;;13.25;6.97;;;;;;;3.86;46.53;94277.94;5028253;28;20033;-74
2024/02/02 01:29:25;;;;;;;9.75;6.50;;;;;;;4.04;46.03;94280.09;5031884;28;20110;-74
2024/02/02 01:31:51;;;;;;;10.48;8.27;;;;;;;4.11;45.78;94249.81;5034319;28;20039;-74
2024/02/02 01:34:16;;;;;;;9.02;6.80;;;;;;;4.32;45.79;94282.25;5030616;28;20389;-74
2024/02/02 01:36:42;;;;;;;10.55;6.22;;;;;;;4.21;46.23;94267.47;5032249;28;20514;-73
2024/02/02 01:39:11;;;;;;;13.73;7.38;;;;;;;4.23;46.14;94289.84;5033522;28;20049;-73
2024/02/02 01:41:39;;;;;;;13.45;7.95;;;;;;;4.19;45.76;94288.81;5027619;28;20514;-74
2024/02/02 01:44:06;;;;;;;14.50;8.40;;;;;;;4.23;45.33;94284.59;5032464;28;21857;-73
2024/02/02 01:46:32;;;;;;;12.48;8.57;;;;;;;4.23;45.58;94292.50;5033792;28;20041;-73
2024/02/02 01:48:57;;;;;;;12.23;7.90;;;;;;;4.22;45.57;94287.47;5031387;28;20045;-74
2024/02/02 01:51:24;;;;;;;13.68;9.07;;;;;;;4.15;46.03;94282.47;5033300;28;20029;-74
2024/02/02 01:53:50;;;;;;;17.30;8.38;;;;;;;4.02;46.32;94284.81;5033097;28;20044;-73
2024/02/02 01:56:16;;;;;;;16.02;8.15;;;;;;;3.84;46.30;94259.78;5029342;28;20121;-73
2024/02/02 01:58:41;;;;;;;12.88;7.80;;;;;;;4.09;46.66;94285.34;5035919;28;26470;-73
2024/02/02 02:01:07;;;;;;;14.60;7.20;;;;;;;4.06;46.55;94297.19;5037402;28;20051;-74
2024/02/02 02:03:33;;;;;;;13.65;8.25;;;;;;;3.98;46.60;94296.91;5035475;28;20040;-73
2024/02/02 02:05:59;;;;;;;11.38;8.63;;;;;;;4.05;46.54;94284.31;5036115;28;20045;-74
2024/02/02 02:08:25;;;;;;;13.65;8.75;;;;;;;4.14;46.12;94274.84;5034384;28;20033;-74
2024/02/02 02:10:51;;;;;;;14.43;8.68;;;;;;;4.16;46.53;94286.69;5034625;28;20118;-73
2024/02/02 02:13:16;;;;;;;14.27;8.95;;;;;;;4.40;46.61;94288.84;5035477;28;20080;-73
2024/02/02 02:15:42;;;;;;;13.93;8.77;;;;;;;4.42;48.65;94276.19;5034803;28;20642;-73
2024/02/02 02:18:07;;;;;;;15.57;9.10;;;;;;;4.42;47.52;94294.63;5034822;28;20051;-73
2024/02/02 02:20:34;;;;;;;13.95;9.15;;;;;;;4.14;46.53;94301.97;5036351;28;20041;-73
2024/02/02 02:23:00;;;;;;;15.10;11.02;;;;;;;4.12;46.77;94292.72;5036671;28;20460;-73
2024/02/02 02:25:26;;;;;;;14.15;9.68;;;;;;;4.12;46.91;94287.47;5034123;28;20539;-72
2024/02/02 02:27:52;;;;;;;14.45;9.70;;;;;;;3.98;46.42;94281.91;5024451;28;20033;-73
2024/02/02 02:30:18;;;;;;;17.02;9.63;;;;;;;4.03;47.06;94294.28;5036206;28;20040;-73
2024/02/02 02:32:44;;;;;;;16.95;9.48;;;;;;;3.98;46.20;94302.97;5033681;28;20128;-73
2024/02/02 02:35:09;;;;;;;18.50;10.45;;;;;;;3.99;45.97;94299.28;5032944;28;20106;-73
2024/02/02 02:37:35;;;;;;;17.08;10.32;;;;;;;3.86;45.82;94283.22;5035758;28;20592;-73
2024/02/02 02:40:01;;;;;;;15.90;9.80;;;;;;;3.88;46.09;94295.03;5035269;28;20514;-73
2024/02/02 02:42:26;;;;;;;17.00;9.82;;;;;;;3.77;46.21;94314.50;5033944;28;20398;-73
2024/02/02 02:44:52;;;;;;;17.98;10.60;;;;;;;3.53;46.93;94285.19;5035362;28;20780;-72
2024/02/02 02:47:18;;;;;;;19.13;11.20;;;;;;;3.64;47.37;94301.81;5034483;28;20041;-73
2024/02/02 02:49:44;;;;;;;19.02;12.05;;;;;;;3.79;47.47;94315.00;5034258;28;20041;-73
2024/02/02 02:52:09;;;;;;;20.85;10.77;;;;;;;3.92;47.20;94304.00;5034656;28;20053;-73
2024/02/02 02:54:34;;;;;;;16.38;11.20;;;;;;;3.82;47.68;94303.97;5033885;28;20033;-73
2024/02/02 02:57:01;;;;;;;17.38;11.93;;;;;;;3.83;47.88;94289.75;5007132;28;20064;-73
2024/02/02 02:59:28;;;;;;;18.65;11.82;;;;;;;3.97;47.96;94309.28;5028050;28;20090;-73
2024/02/02 03:01:54;;;;;;;20.35;11.60;;;;;;;3.96;48.94;94296.41;5035097;28;20029;-73
2024/02/02 03:04:19;;;;;;;21.25;12.10;;;;;;;3.89;50.25;94283.47;5033788;28;20669;-73
2024/02/02 03:06:45;;;;;;;17.08;12.00;;;;;;;3.93;51.70;94305.59;5033267;28;20077;-73
2024/02/02 03:09:11;;;;;;;20.52;12.55;;;;;;;3.88;52.00;94299.50;5032397;28;20116;-74
2024/02/02 03:11:37;;;;;;;16.55;10.90;;;;;;;3.85;52.38;94295.56;5033675;28;20133;-73
2024/02/02 03:14:03;;;;;;;17.48;10.82;;;;;;;3.88;52.67;94297.66;5024258;28;20049;-73
2024/02/02 03:16:28;;;;;;;14.20;9.57;;;;;;;3.85;52.60;94285.03;5026123;28;20036;-73
2024/02/02 03:18:54;;;;;;;14.50;10.30;;;;;;;4.05;52.34;94298.25;5034156;28;20211;-73
2024/02/02 03:21:19;;;;;;;20.02;10.90;;;;;;;3.86;52.88;94299.00;5036239;28;20037;-73
2024/02/02 03:23:45;;;;;;;19.15;10.90;;;;;;;3.77;53.13;94303.97;5032635;28;20435;-73
2024/02/02 03:26:10;;;;;;;14.32;9.90;;;;;;;3.71;53.54;94300.53;5035200;28;20060;-73
2024/02/02 03:28:36;;;;;;;15.32;9.82;;;;;;;3.82;53.31;94301.34;5034689;28;20090;-73
2024/02/02 03:31:02;;;;;;;15.52;9.32;;;;;;;3.82;53.09;94298.69;5033420;28;20084;-73
2024/02/02 03:33:27;;;;;;;17.80;9.85;;;;;;;3.91;53.36;94296.38;5037061;28;20466;-73
2024/02/02 03:35:53;;;;;;;13.80;9.30;;;;;;;3.83;54.38;94313.44;5031986;28;20045;-73
2024/02/02 03:38:18;;;;;;;16.60;10.57;;;;;;;3.86;55.15;94294.53;5033002;28;20591;-73
2024/02/02 03:40:44;;;;;;;12.80;9.75;;;;;;;3.38;55.96;94267.50;5033457;28;20090;-73
2024/02/02 03:43:10;;;;;;;12.43;9.07;;;;;;;3.62;55.95;94309.19;5034817;28;20179;-73
2024/02/02 03:45:37;;;;;;;13.82;9.93;;;;;;;3.34;55.57;94279.59;5035136;28;20029;-73
2024/02/02 03:48:02;;;;;;;15.55;10.43;;;;;;;3.59;55.34;94302.56;5033955;28;20081;-72
2024/02/02 03:50:28;;;;;;;15.30;10.20;;;;;;;3.69;55.14;94302.63;5034204;28;20156;-72
2024/02/02 03:52:57;;;;;;;15.63;10.73;;;;;;;3.81;54.61;94305.81;5030655;28;20060;-73
2024/02/02 03:55:23;;;;;;;12.18;8.48;;;;;;;3.89;54.72;94303.72;5032424;28;20045;-73
2024/02/02 03:57:48;;;;;;;18.27;11.48;;;;;;;3.74;55.23;94307.09;5034508;28;20363;-73
2024/02/02 04:00:15;;;;;;;18.25;11.57;;;;;;;3.69;55.49;94325.50;5035251;28;20115;-74
2024/02/02 04:02:45;;;;;;;17.58;11.93;;;;;;;3.74;55.75;94312.38;5033363;28;20037;-74
2024/02/02 04:05:11;;;;;;;24.75;14.25;;;;;;;3.62;55.56;94312.59;5028075;28;20049;-73
2024/02/02 04:07:36;;;;;;;18.60;12.00;;;;;;;3.63;55.77;94316.00;5025656;28;20471;-73
2024/02/02 04:10:03;;;;;;;13.95;8.75;;;;;;;3.54;55.19;94320.97;5007799;28;20065;-73
2024/02/02 04:12:29;;;;;;;12.55;9.57;;;;;;;3.44;55.16;94320.13;5009928;28;20455;-73
2024/02/02 04:14:55;;;;;;;15.48;10.25;;;;;;;3.57;54.61;94317.84;5031290;28;20132;-73
2024/02/02 04:17:21;;;;;;;13.25;9.07;;;;;;;3.55;54.31;94329.66;5031407;28;20041;-73
2024/02/02 04:19:46;;;;;;;12.25;9.18;;;;;;;3.24;54.61;94341.84;5030954;28;20065;-73
2024/02/02 04:22:12;;;;;;;13.02;8.40;;;;;;;2.95;55.23;94318.53;5028237;28;20049;-73
2024/02/02 04:24:37;;;;;;;15.10;9.05;;;;;;;3.11;55.22;94345.72;5033417;28;20025;-71
2024/02/02 04:27:03;;;;;;;11.70;9.13;;;;;;;3.03;55.09;94333.06;5032618;28;20075;-72
2024/02/02 04:29:28;;;;;;;10.85;8.20;;;;;;;3.06;55.20;94347.50;5031614;28;20048;-73
2024/02/02 04:31:54;;;;;;;16.55;10.40;;;;;;;3.04;54.65;94339.88;5032373;28;20383;-73
2024/02/02 04:34:19;;;;;;;18.58;11.85;;;;;;;3.21;54.01;94372.06;5033027;28;20067;-73
2024/02/02 04:36:45;;;;;;;14.57;9.60;;;;;;;3.08;54.06;94367.25;5031797;28;20035;-72
2024/02/02 04:39:10;;;;;;;12.75;9.38;;;;;;;3.23;54.48;94388.34;5032427;28;20598;-73
2024/02/02 04:41:36;;;;;;;14.52;10.07;;;;;;;3.20;54.67;94383.63;5026247;28;20107;-74
2024/02/02 04:44:01;;;;;;;14.77;10.05;;;;;;;3.23;54.58;94383.09;5031441;28;20033;-73
2024/02/02 04:46:27;;;;;;;13.20;8.43;;;;;;;3.22;54.35;94378.91;5033158;28;20782;-73
2024/02/02 04:48:52;;;;;;;13.60;9.07;;;;;;;3.30;54.48;94378.44;5034628;28;20123;-73
2024/02/02 04:51:18;;;;;;;13.80;9.35;;;;;;;3.14;55.26;94382.00;5032654;28;20094;-73
2024/02/02 04:53:43;;;;;;;14.90;10.60;;;;;;;3.29;55.05;94384.72;5032510;28;20067;-73
2024/02/02 04:56:09;;;;;;;11.10;9.13;;;;;;;3.07;55.10;94368.28;5032702;28;20068;-73
2024/02/02 04:58:34;;;;;;;14.10;9.23;;;;;;;3.09;55.44;94399.56;5029242;28;20056;-73
2024/02/02 05:01:00;;;;;;;15.52;10.90;;;;;;;2.98;55.86;94390.84;5031398;28;23047;-72
2024/02/02 05:03:25;;;;;;;12.75;9.98;;;;;;;3.09;55.36;94389.84;5033941;28;20099;-73
2024/02/02 05:05:51;;;;;;;15.15;10.75;;;;;;;3.02;55.64;94394.53;5034422;28;20052;-73
2024/02/02 05:08:16;;;;;;;16.20;10.32;;;;;;;2.93;55.68;94396.06;5016290;28;20134;-73
2024/02/02 05:10:42;;;;;;;16.95;10.68;;;;;;;2.71;55.99;94377.72;5012501;28;20072;-73
2024/02/02 05:13:07;;;;;;;12.90;10.00;;;;;;;2.86;56.22;94404.13;5009586;28;20449;-73
2024/02/02 05:15:33;;;;;;;14.88;9.48;;;;;;;2.83;56.37;94409.09;5033111;28;20406;-73
2024/02/02 05:17:58;;;;;;;15.05;9.80;;;;;;;2.80;56.62;94406.94;5030462;28;21037;-73
2024/02/02 05:20:23;;;;;;;18.10;12.43;;;;;;;2.49;57.59;94411.94;5030090;28;20033;-73
2024/02/02 05:22:49;;;;;;;33.03;19.13;;;;;;;2.66;57.36;94424.16;5030361;28;20148;-73
2024/02/02 05:25:14;;;;;;;23.15;14.27;;;;;;;2.75;57.35;94409.53;5031758;28;20082;-73
2024/02/02 05:27:40;;;;;;;17.17;12.05;;;;;;;2.74;57.33;94406.16;5032590;28;20151;-72
2024/02/02 05:30:07;;;;;;;19.48;12.00;;;;;;;2.62;57.73;94417.81;5033915;28;20098;-73
2024/02/02 05:32:32;;;;;;;23.40;12.77;;;;;;;2.60;58.04;94418.06;5033039;28;20150;-73
2024/02/02 05:34:58;;;;;;;15.57;11.15;;;;;;;2.45;58.59;94415.31;5032955;28;20465;-72
2024/02/02 05:37:23;;;;;;;15.07;10.55;;;;;;;2.39;58.85;94419.72;5034281;28;20095;-72
2024/02/02 05:39:49;;;;;;;15.75;10.65;;;;;;;2.44;59.01;94425.03;5034437;28;20033;-71
2024/02/02 05:42:14;;;;;;;13.77;10.15;;;;;;;2.58;58.59;94429.88;5035874;28;20530;-71
2024/02/02 05:44:40;;;;;;;15.98;11.00;;;;;;;2.54;58.98;94426.97;5034351;28;20064;-72
2024/02/02 05:47:06;;;;;;;13.60;10.38;;;;;;;2.43;59.06;94412.13;5037987;28;20037;-72
2024/02/02 05:49:31;;;;;;;14.18;9.32;;;;;;;2.51;59.29;94432.69;5035386;28;20728;-72
2024/02/02 05:51:59;;;;;;;17.02;12.05;;;;;;;2.72;59.22;94441.56;5031728;28;20048;-72
2024/02/02 05:54:24;;;;;;;17.25;10.57;;;;;;;2.51;59.87;94451.06;5037355;28;20032;-72
2024/02/02 05:56:50;;;;;;;16.58;11.73;;;;;;;2.38;61.11;94457.50;5038675;28;20041;-72
2024/02/02 05:59:15;;;;;;;19.75;13.93;;;;;;;2.34;61.64;94456.41;5035116;28;20041;-72
2024/02/02 06:01:40;;;;;;;16.30;11.52;;;;;;;2.05;63.33;94447.94;5035791;28;20507;-72
2024/02/02 06:04:06;;;;;;;20.70;12.82;;;;;;;1.69;65.30;94445.88;5036956;28;20060;-72
2024/02/02 06:06:32;;;;;;;19.20;13.45;;;;;;;2.03;64.89;94470.22;5035580;28;20037;-72
2024/02/02 06:08:57;;;;;;;20.15;13.98;;;;;;;2.09;64.74;94469.25;5034198;28;20040;-72
2024/02/02 06:11:23;;;;;;;21.40;13.68;;;;;;;1.92;65.85;94485.03;5034267;28;20603;-72
2024/02/02 06:13:48;;;;;;;21.92;14.65;;;;;;;1.84;66.75;94487.25;5035305;28;20499;-72
2024/02/02 06:16:14;;;;;;;22.98;15.57;;;;;;;1.78;67.29;94488.19;5035135;28;20298;-72
2024/02/02 06:18:39;;;;;;;31.30;17.45;;;;;;;1.76;67.88;94492.91;5036176;28;20551;-72
2024/02/02 06:21:07;;;;;;;26.52;17.17;;;;;;;1.77;67.71;94476.91;5036792;28;20111;-72
2024/02/02 06:23:33;;;;;;;24.15;15.20;;;;;;;1.95;67.44;94494.25;5023706;28;20095;-72
2024/02/02 06:25:58;;;;;;;25.92;16.98;;;;;;;1.68;68.66;94504.59;5034200;28;20029;-72
2024/02/02 06:28:24;;;;;;;25.63;16.23;;;;;;;1.63;69.13;94507.94;5037108;28;20061;-72
2024/02/02 06:30:49;;;;;;;27.33;17.10;;;;;;;1.47;69.21;94498.25;5039205;28;20108;-72
2024/02/02 06:33:16;;;;;;;25.67;16.88;;;;;;;1.57;69.14;94518.59;5034149;28;20456;-72
2024/02/02 06:35:44;;;;;;;24.38;15.90;;;;;;;1.59;68.80;94506.84;5014304;28;20046;-72
2024/02/02 06:38:10;;;;;;;24.15;15.40;;;;;;;1.46;69.35;94512.41;5009347;28;20045;-72
2024/02/02 06:40:35;;;;;;;25.83;18.25;;;;;;;1.55;69.40;94513.59;5024053;28;20047;-72
2024/02/02 06:43:01;;;;;;;24.50;16.33;;;;;;;1.65;68.54;94498.00;5032898;28;20041;-72
2024/02/02 06:45:27;;;;;;;25.20;16.88;;;;;;;1.59;68.20;94517.31;5035808;28;20086;-72
2024/02/02 06:47:52;;;;;;;29.05;17.65;;;;;;;1.61;68.00;94507.41;5033557;28;20492;-72
2024/02/02 06:50:18;;;;;;;22.80;15.57;;;;;;;1.51;67.66;94504.63;5035075;28;20041;-72
2024/02/02 06:52:44;;;;;;;23.25;15.85;;;;;;;1.59;66.25;94501.59;5031762;28;20139;-71
2024/02/02 06:55:09;;;;;;;24.60;14.75;;;;;;;1.61;64.85;94494.28;5020163;28;20438;-72
2024/02/02 06:57:35;;;;;;;19.90;13.23;;;;;;;1.61;62.42;94509.22;5037941;28;20589;-72
2024/02/02 07:00:02;;;;;;;15.50;10.27;;;;;;;1.48;60.75;94509.53;5036097;28;20037;-72
2024/02/02 07:02:30;;;;;;;18.17;11.25;;;;;;;1.54;60.41;94516.44;5036689;28;20033;-72
2024/02/02 07:04:57;;;;;;;20.55;14.48;;;;;;;1.53;60.75;94518.28;5038031;28;20041;-72
2024/02/02 07:07:23;;;;;;;19.17;12.30;;;;;;;1.85;60.21;94515.06;5036397;28;20206;-72
2024/02/02 07:09:55;;;;;;;20.95;13.60;;;;;;;1.80;60.62;94518.41;5036681;28;20032;-72
2024/02/02 07:12:55;;;;;;;27.45;20.33;;;;;;;1.89;60.63;94529.31;5036309;28;20478;-72
2024/02/02 07:15:22;;;;;;;19.60;13.90;;;;;;;1.90;60.07;94512.53;5035897;28;20053;-72
2024/02/02 07:17:49;;;;;;;18.35;13.50;;;;;;;1.93;60.03;94528.59;5034062;28;20493;-72
2024/02/02 07:20:25;;;;;;;22.65;14.80;;;;;;;1.88;60.82;94540.84;5031154;28;20549;-72
2024/02/02 07:22:55;;;;;;;25.30;17.13;;;;;;;1.88;61.15;94546.09;5034650;28;20505;-70
2024/02/02 07:25:22;;;;;;;26.55;16.55;;;;;;;2.00;60.20;94544.16;5034184;28;20071;-72
2024/02/02 07:27:51;;;;;;;32.22;18.92;;;;;;;1.93;60.48;94548.78;5037491;28;20083;-72
2024/02/02 07:30:44;;;;;;;25.60;16.25;;;;;;;1.96;60.54;94556.94;5033714;28;20033;-72
2024/02/02 07:33:25;;;;;;;38.55;23.02;;;;;;;1.95;60.76;94558.00;5036872;28;20079;-72
2024/02/02 07:35:52;;;;;;;39.08;23.13;;;;;;;2.03;60.79;94562.84;5032496;28;20029;-72
2024/02/02 07:38:30;;;;;;;36.13;21.08;;;;;;;1.85;62.18;94557.03;5032748;28;20099;-72
2024/02/02 07:41:07;;;;;;;26.23;17.23;;;;;;;1.97;61.95;94553.31;5033685;28;20059;-72
2024/02/02 07:43:35;;;;;;;38.85;23.38;;;;;;;1.91;62.29;94545.63;5032357;28;20552;-72
2024/02/02 07:46:01;;;;;;;26.15;18.17;;;;;;;2.16;61.76;94563.53;5027470;28;20096;-71
2024/02/02 07:48:28;;;;;;;27.60;18.48;;;;;;;2.16;61.71;94553.03;5010890;28;20085;-72
2024/02/02 07:50:53;;;;;;;23.98;17.05;;;;;;;2.03;62.86;94560.22;5030314;28;20060;-72
2024/02/02 07:53:19;;;;;;;26.73;16.90;;;;;;;2.08;63.14;94546.38;5032287;28;20410;-72
2024/02/02 07:55:45;;;;;;;26.33;16.45;;;;;;;2.03;62.47;94517.44;5035803;28;20041;-72
2024/02/02 07:58:10;;;;;;;25.77;15.98;;;;;;;2.27;62.08;94550.28;5034639;28;20888;-72
2024/02/02 08:00:36;;;;;;;31.20;16.50;;;;;;;2.07;62.27;94552.66;5030829;28;21270;-72
2024/02/02 08:03:01;;;;;;;24.75;16.63;;;;;;;1.99;62.27;94539.94;5033696;28;20052;-72
2024/02/02 08:05:29;;;;;;;25.65;17.20;;;;;;;2.03;62.28;94562.03;5033263;28;20053;-72
2024/02/02 08:07:55;;;;;;;21.80;15.13;;;;;;;1.94;62.29;94537.25;5034732;28;20536;-72
2024/02/02 08:10:20;;;;;;;25.80;17.00;;;;;;;2.03;62.08;94541.06;5035255;28;20057;-71
2024/02/02 08:12:46;;;;;;;20.08;14.95;;;;;;;2.15;62.08;94559.31;5035554;28;20394;-71
2024/02/02 08:15:12;;;;;;;21.67;14.63;;;;;;;2.21;61.72;94560.97;5032500;28;20045;-72
2024/02/02 08:17:37;;;;;;;25.52;17.17;;;;;;;2.35;61.29;94563.00;5031446;28;20623;-72
2024/02/02 08:20:03;;;;;;;21.88;14.80;;;;;;;2.67;59.03;94559.72;5032370;28;20715;-72
2024/02/02 08:22:28;;;;;;;24.10;16.70;;;;;;;2.52;59.02;94565.56;5033719;28;20040;-72
2024/02/02 08:24:54;;;;;;;31.85;19.90;;;;;;;2.71;58.23;94571.31;5033827;28;20053;-71
2024/02/02 08:27:20;;;;;;;24.30;16.85;;;;;;;2.77;58.25;94565.06;5035215;28;20028;-72
2024/02/02 08:29:46;;;;;;;24.77;16.30;;;;;;;2.73;58.25;94561.34;5014419;28;20518;-72
2024/02/02 08:32:12;;;;;;;23.98;16.00;;;;;;;2.67;58.44;94559.72;5025111;28;20045;-72
2024/02/02 08:34:38;;;;;;;24.05;15.73;;;;;;;2.62;58.05;94551.78;5033453;28;20121;-72
2024/02/02 08:37:04;;;;;;;23.20;15.65;;;;;;;2.73;57.12;94559.53;5031925;28;20039;-72
2024/02/02 08:39:34;;;;;;;24.88;14.85;;;;;;;2.63;57.65;94561.25;5033277;28;20478;-72
2024/02/02 08:42:07;;;;;;;24.90;15.20;;;;;;;2.78;56.85;94564.03;5031393;28;20040;-72
2024/02/02 08:44:33;;;;;;;23.50;14.30;;;;;;;2.94;55.40;94568.41;5031166;28;20087;-72
2024/02/02 08:46:59;;;;;;;21.23;14.30;;;;;;;2.73;55.78;94553.47;5031197;28;20049;-72
2024/02/02 08:49:46;;;;;;;19.80;13.63;;;;;;;2.64;56.11;94553.13;5032782;28;20037;-72
2024/02/02 08:52:20;;;;;;;17.88;12.93;;;;;;;2.61;55.75;94558.06;5032782;28;20051;-72
2024/02/02 08:54:46;;;;;;;22.20;14.65;;;;;;;2.42;56.32;94553.13;5031004;28;20040;-72
2024/02/02 08:57:31;;;;;;;18.85;13.68;;;;;;;2.40;55.25;94554.41;5028514;28;20029;-72
2024/02/02 09:00:10;;;;;;;15.25;11.95;;;;;;;2.41;54.21;94541.03;5029905;28;20037;-72
2024/02/02 09:02:56;;;;;;;17.80;12.15;;;;;;;2.19;53.88;94545.47;5031949;28;20037;-72
2024/02/02 09:05:24;;;;;;;14.98;10.68;;;;;;;2.20;53.74;94560.19;5030530;28;20134;-72
2024/02/02 09:08:10;;;;;;;17.35;11.38;;;;;;;2.20;53.47;94567.28;5031715;28;20531;-71
2024/02/02 09:10:42;;;;;;;15.88;11.55;;;;;;;2.21;54.05;94560.97;5031673;28;20715;-71
2024/02/02 09:13:17;;;;;;;17.92;10.45;;;;;;;2.41;52.67;94571.72;5028639;28;20815;-72
2024/02/02 09:15:42;;;;;;;15.55;10.77;;;;;;;2.29;52.66;94574.47;5032716;28;20039;-72
2024/02/02 09:18:13;;;;;;;13.10;9.93;;;;;;;2.31;51.92;94568.97;5010052;28;20032;-72
2024/02/02 09:20:51;;;;;;;14.98;10.40;;;;;;;2.35;52.06;94563.00;5007453;28;20034;-72
2024/02/02 09:23:17;;;;;;;15.07;10.15;;;;;;;2.50;51.66;94560.56;5010095;28;20053;-72
2024/02/02 09:25:47;;;;;;;14.80;10.60;;;;;;;2.28;51.82;94566.84;5007502;28;20120;-72
2024/02/02 09:28:25;;;;;;;15.20;9.60;;;;;;;2.39;50.55;94566.75;5011574;28;20043;-73
2024/02/02 09:31:01;;;;;;;12.45;8.68;;;;;;;2.37;49.41;94574.06;5004628;28;20049;-73
2024/02/02 09:33:46;;;;;;;10.55;8.38;;;;;;;2.19;50.13;94563.03;5005886;28;20064;-73
2024/02/02 09:36:13;;;;;;;12.27;9.40;;;;;;;2.14;50.36;94561.16;5032283;28;20063;-73
2024/02/02 09:38:39;;;;;;;22.05;10.98;;;;;;;1.93;50.48;94554.03;5030774;28;20041;-73
2024/02/02 09:41:05;;;;;;;19.90;10.60;;;;;;;2.10;50.55;94578.41;5031692;28;20029;-72
2024/02/02 09:43:57;;;;;;;13.52;9.55;;;;;;;2.19;50.56;94558.59;5029766;28;20044;-72
2024/02/02 09:47:18;;;;;;;16.40;9.95;;;;;;;2.35;50.29;94567.47;5030963;28;20045;-73
2024/02/02 09:49:56;;;;;;;15.68;10.93;;;;;;;2.33;50.71;94559.81;5031019;28;20029;-72
2024/02/02 09:52:43;;;;;;;13.60;10.52;;;;;;;2.46;50.20;94559.47;5032837;28;20068;-72
2024/02/02 09:55:23;;;;;;;14.40;10.18;;;;;;;2.48;50.20;94557.41;5033675;28;20191;-72
2024/02/02 09:57:54;;;;;;;14.80;9.80;;;;;;;2.58;49.87;94555.94;5031320;28;20120;-72
2024/02/02 10:00:38;;;;;;;17.38;10.27;;;;;;;2.55;49.92;94564.31;5030811;28;20029;-72
2024/02/02 10:03:13;;;;;;;16.42;11.88;;;;;;;2.40;50.40;94563.06;5031236;28;20127;-72
2024/02/02 10:06:10;;;;;;;18.45;11.15;;;;;;;2.65;49.87;94556.50;5031799;28;20051;-72
2024/02/02 10:09:09;;;;;;;19.60;11.73;;;;;;;2.74;49.88;94552.44;5031507;28;20085;-72
2024/02/02 10:11:43;;;;;;;14.70;11.02;;;;;;;2.75;49.78;94552.19;5031428;28;20052;-72
2024/02/02 10:14:45;;;;;;;16.42;10.32;;;;;;;2.75;49.98;94554.00;5030045;28;20116;-72
2024/02/02 10:17:32;;;;;;;17.40;10.23;;;;;;;3.06;49.41;94552.50;5018561;28;20041;-72
2024/02/02 10:20:19;;;;;;;16.35;10.68;;;;;;;2.96;49.34;94547.94;5026133;28;20049;-72
2024/02/02 10:23:06;;;;;;;12.68;9.52;;;;;;;2.95;49.65;94554.22;5035838;28;20661;-72
2024/02/02 10:25:50;;;;;;;13.98;10.93;;;;;;;2.88;50.14;94558.91;5035729;28;20044;-72
2024/02/02 10:28:18;;;;;;;16.38;10.93;;;;;;;2.80;50.46;94548.81;5035823;28;20119;-72
2024/02/02 10:31:32;;;;;;;13.57;9.02;;;;;;;3.07;49.35;94554.91;5034728;28;20029;-72
2024/02/02 10:34:15;;;;;;;13.00;9.05;;;;;;;2.87;50.13;94550.22;5034655;28;20049;-72
2024/02/02 10:36:59;;;;;;;12.43;9.02;;;;;;;2.89;50.00;94548.13;5030056;28;20497;-72
2024/02/02 10:39:52;;;;;;;13.27;9.27;;;;;;;2.82;50.60;94552.00;5035478;28;20045;-73
2024/02/02 10:42:33;;;;;;;11.40;8.90;;;;;;;3.00;49.70;94542.97;5032475;28;20121;-72
2024/02/02 10:45:01;;;;;;;11.18;8.50;;;;;;;3.06;49.76;94542.78;5037457;28;20041;-72
2024/02/02 10:47:46;;;;;;;11.32;8.60;;;;;;;3.10;50.13;94548.34;5035826;28;20409;-73
2024/02/02 10:50:29;;;;;;;10.80;8.50;;;;;;;3.07;49.79;94554.91;5033056;28;20040;-72
2024/02/02 10:53:29;;;;;;;11.20;8.38;;;;;;;2.78;49.71;94514.13;5033062;28;20060;-72
2024/02/02 10:56:22;;;;;;;10.93;8.02;;;;;;;3.04;49.87;94552.75;5029167;28;20041;-72
2024/02/02 10:59:04;;;;;;;13.00;9.35;;;;;;;2.90;50.21;94543.66;5034892;28;20037;-73
2024/02/02 11:02:05;;;;;;;13.27;9.32;;;;;;;2.92;50.64;94546.84;5034146;28;20048;-72
2024/02/02 11:04:37;;;;;;;15.10;10.77;;;;;;;2.93;50.58;94551.06;5035573;28;20043;-72
2024/02/02 11:07:27;;;;;;;16.05;10.45;;;;;;;2.95;50.21;94556.84;5029133;28;20041;-72
2024/02/02 11:09:56;;;;;;;15.00;9.85;;;;;;;2.82;50.64;94552.00;5036665;28;20024;-72
2024/02/02 11:12:47;;;;;;;14.23;9.00;;;;;;;2.84;50.46;94560.44;5035880;28;20131;-72
2024/02/02 11:15:29;;;;;;;17.25;9.73;;;;;;;2.69;50.96;94557.63;5032909;28;20532;-72
2024/02/02 11:18:10;;;;;;;19.33;9.63;;;;;;;2.55;51.27;94566.94;5033441;28;20073;-72
2024/02/02 11:20:35;;;;;;;16.60;10.30;;;;;;;2.50;51.61;94560.56;5033878;28;26058;-72
2024/02/02 11:23:36;;;;;;;15.57;10.98;;;;;;;2.64;51.46;94557.59;5034732;28;20401;-72
2024/02/02 11:26:01;;;;;;;15.60;9.80;;;;;;;2.70;51.60;94564.47;5028786;28;20029;-72
2024/02/02 11:28:48;;;;;;;14.68;10.55;;;;;;;2.78;51.59;94562.22;5033591;28;20076;-72
2024/02/02 11:31:47;;;;;;;13.48;10.07;;;;;;;2.70;51.70;94559.19;5035474;28;20578;-72
2024/02/02 11:34:31;;;;;;;14.25;9.40;;;;;;;2.53;52.19;94557.47;5033719;28;20512;-73
2024/02/02 11:36:59;;;;;;;15.75;9.80;;;;;;;2.37;52.75;94560.13;5034241;28;20049;-72
2024/02/02 11:39:56;;;;;;;14.65;9.07;;;;;;;2.51;52.25;94567.41;5033689;28;20232;-73
2024/02/02 11:42:24;;;;;;;13.27;9.68;;;;;;;2.43;52.46;94567.84;5033195;28;20064;-73